CheckWX is a tool to help pilots better visualize weather data.  It is not intended as a substitute for an official pre-flight weather briefing.

23:32:23 UTC

KJZI METAR
Charleston Executive Airport
Charleston, South Carolina, USA
Current

17 mins ago

KJZI 192315Z AUTO 20013KT 9SM CLR 31/26 A3003 RMK AO2
Observed
Jul-19 @ 23:15 UTC
Wind
  • 200° at 13 KTS
Visibility
9 SM
Flight Rules
VFR
Cloud Levels
  • Clear skies
Temperature
31°C / 88°F
Dewpoint
26°C / 79°F
Heat Index
39°C / 103°F
Humidity
75%
Altimeter
30.03" Hg
Pressure
1016.92 hPa
Previous

37 mins ago

KJZI 192255Z AUTO 20012KT 9SM CLR 31/25 A3002 RMK AO2 LTG DSNT NW
Observed
Jul-19 @ 22:55 UTC
Wind
  • 200° at 12 KTS
Visibility
9 SM
Flight Rules
VFR
Cloud Levels
  • Clear skies
Temperature
31°C / 88°F
Dewpoint
25°C / 77°F
Heat Index
38°C / 100°F
Humidity
70%
Altimeter
30.02" Hg
Pressure
1016.62 hPa
Previous

57 mins ago

KJZI 192235Z AUTO 19014KT 9SM CLR 31/25 A3001 RMK AO2
Observed
Jul-19 @ 22:35 UTC
Wind
  • 190° at 14 KTS
Visibility
9 SM
Flight Rules
VFR
Cloud Levels
  • Clear skies
Temperature
31°C / 88°F
Dewpoint
25°C / 77°F
Heat Index
38°C / 100°F
Humidity
70%
Altimeter
30.01" Hg
Pressure
1016.22 hPa